Time;durP1;ratioP1;P1;durP2;ratioP2;P2;SDS_P1;SDS_P2;PMS_P1;PMS_P2;Temp;Humidity;BMP_temperature;BMP_pressure;BME280_temperature;BME280_humidity;BME280_pressure;Samples;Min_cycle;Max_cycle;Signal;HPM_P1;HPM_P2
2023/10/17 00:00:32;;;;;;;5.03;1.60;;;;;;;5.70;63.99;98296.03;5092639;28;20031;-65
2023/10/17 00:02:59;;;;;;;2.15;1.48;;;;;;;5.67;63.93;98284.81;5092182;28;20024;-65
2023/10/17 00:05:25;;;;;;;4.40;1.80;;;;;;;5.68;63.95;98286.50;5096695;28;20043;-64
2023/10/17 00:07:51;;;;;;;2.90;1.30;;;;;;;5.69;64.04;98294.34;5113395;28;20438;-64
2023/10/17 00:10:18;;;;;;;5.28;1.30;;;;;;;5.66;63.91;98291.94;5112790;28;20043;-65
2023/10/17 00:12:46;;;;;;;5.00;1.48;;;;;;;5.65;64.34;98286.75;5112759;28;20459;-64
2023/10/17 00:15:35;;;;;;;3.92;1.60;;;;;;;5.58;64.18;98292.59;5113100;28;20031;-65
2023/10/17 00:18:03;;;;;;;4.82;1.50;;;;;;;5.55;63.95;98300.84;5091341;28;20024;-65
2023/10/17 00:20:37;;;;;;;2.88;1.58;;;;;;;5.51;64.08;98288.75;5091206;28;20173;-65
2023/10/17 00:23:06;;;;;;;2.97;1.30;;;;;;;5.54;64.20;98304.44;5091985;28;20048;-64
2023/10/17 00:25:33;;;;;;;4.97;1.38;;;;;;;5.25;64.50;98253.81;5092530;28;20090;-63
2023/10/17 00:27:59;;;;;;;5.22;1.25;;;;;;;5.48;63.97;98301.47;5102731;28;20362;-66
2023/10/17 00:30:29;;;;;;;3.53;1.50;;;;;;;5.46;64.11;98296.28;5131369;27;20039;-64
2023/10/17 00:32:55;;;;;;;4.18;2.22;;;;;;;5.39;64.15;98287.16;5133583;27;20027;-65
2023/10/17 00:35:25;;;;;;;6.75;1.60;;;;;;;5.37;64.01;98289.94;5133551;27;20460;-65
2023/10/17 00:37:58;;;;;;;3.90;1.70;;;;;;;5.40;64.24;98310.06;5133618;27;20395;-64
2023/10/17 00:40:34;;;;;;;3.70;1.75;;;;;;;5.38;63.80;98296.91;5133503;27;20071;-62
2023/10/17 00:43:04;;;;;;;3.40;1.60;;;;;;;5.31;64.11;98291.31;5115552;28;20037;-64
2023/10/17 00:45:32;;;;;;;2.70;1.58;;;;;;;5.35;63.81;98296.34;5121552;28;20031;-65
2023/10/17 00:48:00;;;;;;;7.88;2.20;;;;;;;5.29;64.55;98298.53;5111845;28;20126;-65
2023/10/17 00:50:28;;;;;;;4.10;1.77;;;;;;;5.27;64.93;98289.84;5113918;28;20035;-65
2023/10/17 00:52:55;;;;;;;2.85;1.90;;;;;;;5.23;64.26;98292.91;5112538;28;20125;-62
2023/10/17 00:55:24;;;;;;;3.08;1.85;;;;;;;5.26;64.08;98296.13;5112783;28;20020;-65
2023/10/17 00:57:52;;;;;;;6.03;2.40;;;;;;;5.22;64.31;98286.75;5112684;28;20517;-65
2023/10/17 01:00:37;;;;;;;4.05;1.90;;;;;;;5.24;64.34;98300.72;5111732;28;20085;-65
2023/10/17 01:03:08;;;;;;;3.53;2.10;;;;;;;5.26;64.22;98304.09;5112700;28;20400;-65
2023/10/17 01:08:50;;;;;;;3.45;1.83;;;;;;;5.22;64.86;98302.66;5116475;28;20450;-63
2023/10/17 01:11:20;;;;;;;5.22;2.20;;;;;;;5.22;64.69;98315.94;5116343;28;20031;-65
2023/10/17 01:13:53;;;;;;;5.40;2.20;;;;;;;5.11;64.92;98313.34;5132626;27;20023;-65
2023/10/17 01:16:25;;;;;;;4.45;2.40;;;;;;;4.79;65.39;98264.63;5135775;27;20035;-64
2023/10/17 01:18:51;;;;;;;6.57;1.98;;;;;;;5.00;64.91;98304.44;5137065;27;20030;-65
2023/10/17 01:21:18;;;;;;;4.55;2.10;;;;;;;4.87;65.54;98299.31;5136486;27;20027;-64
2023/10/17 01:23:45;;;;;;;5.07;2.30;;;;;;;4.84;65.63;98304.84;5135950;27;20202;-64
2023/10/17 01:26:14;;;;;;;4.07;2.28;;;;;;;4.72;65.70;98308.53;5135554;27;20362;-65
2023/10/17 01:28:45;;;;;;;5.32;2.10;;;;;;;4.63;65.96;98307.44;5136632;27;20028;-64
2023/10/17 01:31:14;;;;;;;4.90;2.05;;;;;;;4.38;65.46;98282.91;5134570;27;20030;-65
2023/10/17 01:33:43;;;;;;;3.65;2.30;;;;;;;4.56;66.00;98323.00;5135891;27;20023;-65
2023/10/17 01:36:10;;;;;;;4.32;1.95;;;;;;;4.47;66.13;98310.50;5134696;27;20027;-66
2023/10/17 01:38:36;;;;;;;4.40;2.22;;;;;;;4.45;66.70;98315.03;5136656;27;20118;-63
2023/10/17 01:41:01;;;;;;;5.13;2.47;;;;;;;4.47;66.53;98312.28;5136334;27;20414;-65
2023/10/17 01:43:30;;;;;;;4.13;1.83;;;;;;;4.43;66.32;98317.84;5136074;27;20023;-62
2023/10/17 01:46:01;;;;;;;5.15;2.05;;;;;;;4.30;66.90;98315.31;5134736;27;20058;-66
2023/10/17 01:48:27;;;;;;;4.20;2.00;;;;;;;3.94;67.16;98266.91;5136674;27;20035;-63
2023/10/17 01:50:53;;;;;;;5.97;2.35;;;;;;;4.21;67.09;98323.16;5136064;27;20037;-63
2023/10/17 01:53:19;;;;;;;3.20;1.75;;;;;;;4.16;66.79;98302.31;5135789;27;20467;-65
2023/10/17 01:55:54;;;;;;;3.15;1.90;;;;;;;4.15;67.22;98322.66;5135962;27;20063;-65
2023/10/17 01:58:22;;;;;;;2.65;1.65;;;;;;;4.10;67.33;98322.19;5133186;27;20088;-65
2023/10/17 02:00:47;;;;;;;5.65;1.83;;;;;;;4.10;67.74;98319.53;5119850;27;21043;-65
2023/10/17 02:03:16;;;;;;;4.32;2.13;;;;;;;4.05;67.84;98319.03;5120693;27;20077;-64
2023/10/17 02:05:42;;;;;;;3.58;1.60;;;;;;;4.02;67.93;98329.88;5115109;28;20042;-65
2023/10/17 02:08:08;;;;;;;2.75;1.70;;;;;;;3.97;68.41;98316.16;5114347;28;20031;-65
2023/10/17 02:10:34;;;;;;;3.30;1.45;;;;;;;3.97;68.58;98327.56;5114836;28;20054;-64
2023/10/17 02:13:00;;;;;;;8.02;1.90;;;;;;;3.98;68.42;98318.69;5115065;28;20140;-65
2023/10/17 02:15:28;;;;;;;2.67;1.58;;;;;;;4.00;68.61;98315.91;5114268;27;20078;-64
2023/10/17 02:17:56;;;;;;;4.32;1.80;;;;;;;3.82;68.25;98292.53;5115141;28;20120;-65
2023/10/17 02:22:53;;;;;;;6.63;1.60;;;;;;;3.96;68.52;98317.13;5114402;28;20039;-64
2023/10/17 02:25:27;;;;;;;9.52;1.50;;;;;;;3.91;67.79;98321.94;5114486;28;20040;-64
2023/10/17 02:27:53;;;;;;;3.95;1.30;;;;;;;3.92;68.03;98320.97;5115045;28;20024;-64
2023/10/17 02:30:20;;;;;;;2.45;1.50;;;;;;;3.94;68.46;98321.69;5114526;28;20068;-64
2023/10/17 02:32:53;;;;;;;4.07;1.50;;;;;;;3.96;67.66;98317.94;5114412;27;20035;-66
2023/10/17 02:35:22;;;;;;;3.35;1.67;;;;;;;3.85;68.62;98310.81;5099537;27;20438;-64
2023/10/17 02:37:48;;;;;;;1.92;1.20;;;;;;;3.89;68.61;98316.75;5117376;27;20548;-65
2023/10/17 02:40:20;;;;;;;3.55;1.50;;;;;;;3.81;68.11;98306.75;5115297;27;20065;-64
2023/10/17 02:42:47;;;;;;;2.97;1.30;;;;;;;3.80;68.29;98309.53;5114305;28;20043;-65
2023/10/17 02:45:13;;;;;;;1.70;1.10;;;;;;;3.87;68.42;98330.13;5113782;28;20020;-66
2023/10/17 02:47:43;;;;;;;4.20;1.33;;;;;;;3.75;68.53;98320.47;5113394;28;20030;-64
2023/10/17 02:52:54;;;;;;;3.17;1.30;;;;;;;3.72;68.27;98318.03;5114167;28;20036;-65
2023/10/17 02:55:28;;;;;;;2.38;1.27;;;;;;;3.71;68.21;98325.13;5114497;27;20042;-63
2023/10/17 02:57:57;;;;;;;4.05;1.30;;;;;;;3.72;68.74;98336.56;5093346;28;20371;-65
2023/10/17 03:00:25;;;;;;;2.75;1.25;;;;;;;3.69;68.96;98339.47;5093464;28;20097;-65
2023/10/17 03:02:52;;;;;;;4.22;1.30;;;;;;;3.70;69.10;98336.69;5099113;27;20023;-65
2023/10/17 03:05:18;;;;;;;4.10;1.48;;;;;;;3.68;69.03;98329.84;5133476;27;20030;-65
2023/10/17 03:07:49;;;;;;;2.28;1.20;;;;;;;3.61;69.03;98325.94;5134185;27;20046;-65
2023/10/17 03:10:37;;;;;;;5.78;1.40;;;;;;;3.58;68.97;98338.47;5131648;27;20027;-64
2023/10/17 03:13:53;;;;;;;3.90;1.50;;;;;;;3.41;68.69;98300.03;5114667;27;20097;-63
2023/10/17 03:15:56;;;;;;;2.95;1.30;;;;;;;3.56;68.96;98318.38;5109688;28;20130;-65
2023/10/17 03:18:22;;;;;;;4.10;1.50;;;;;;;3.49;69.24;98323.28;5113717;28;20043;-65
2023/10/17 03:20:51;;;;;;;3.78;1.60;;;;;;;3.39;69.99;98322.31;5112330;28;20438;-65
2023/10/17 03:23:28;;;;;;;3.10;1.65;;;;;;;3.40;69.47;98324.00;5113746;28;20457;-66
2023/10/17 03:26:02;;;;;;;5.50;1.40;;;;;;;3.30;70.08;98319.38;5124030;27;20462;-65
2023/10/17 03:28:33;;;;;;;3.22;1.40;;;;;;;3.23;69.69;98322.59;5132661;27;20062;-65
2023/10/17 03:30:59;;;;;;;4.72;1.48;;;;;;;3.22;70.12;98313.81;5131465;27;20023;-65
2023/10/17 03:33:29;;;;;;;4.43;1.25;;;;;;;3.11;70.41;98324.34;5134349;27;20038;-65
2023/10/17 03:38:33;;;;;;;2.03;1.17;;;;;;;3.09;70.19;98329.75;5133926;27;20031;-64
2023/10/17 03:41:07;;;;;;;4.55;1.50;;;;;;;2.99;71.09;98320.81;5134062;27;20027;-65
2023/10/17 03:43:51;;;;;;;2.30;1.20;;;;;;;2.97;70.72;98336.78;5132597;27;20031;-65
2023/10/17 03:46:18;;;;;;;2.92;1.33;;;;;;;2.90;71.23;98324.13;5132784;27;20030;-64
2023/10/17 03:49:00;;;;;;;3.95;1.15;;;;;;;2.89;70.95;98341.78;5131014;27;20035;-64
2023/10/17 03:51:26;;;;;;;5.45;1.40;;;;;;;2.87;71.05;98339.25;5133699;27;20114;-66
2023/10/17 03:53:53;;;;;;;2.45;1.23;;;;;;;2.85;72.02;98345.59;5133585;27;20512;-64
2023/10/17 03:56:25;;;;;;;4.10;1.20;;;;;;;2.79;71.31;98336.34;5131737;27;20395;-65
2023/10/17 03:58:59;;;;;;;2.22;1.40;;;;;;;2.84;71.43;98355.34;5133406;27;20019;-65
2023/10/17 04:01:26;;;;;;;3.50;1.38;;;;;;;2.71;71.39;98350.09;5133769;27;20112;-66
2023/10/17 04:03:55;;;;;;;4.53;1.30;;;;;;;2.78;71.55;98360.22;5133347;27;20391;-65
2023/10/17 04:06:40;;;;;;;3.78;1.58;;;;;;;2.78;71.64;98365.50;5133324;27;20035;-64
2023/10/17 04:11:49;;;;;;;3.05;1.33;;;;;;;2.85;72.00;98370.25;5118287;27;20050;-66
2023/10/17 04:14:17;;;;;;;3.05;1.27;;;;;;;2.79;71.68;98352.19;5112846;28;20027;-66
2023/10/17 04:16:48;;;;;;;2.97;1.25;;;;;;;2.96;70.91;98372.13;5113074;28;20034;-65
2023/10/17 04:19:20;;;;;;;2.63;1.02;;;;;;;2.97;71.32;98365.88;5112409;28;20040;-66
2023/10/17 04:22:02;;;;;;;2.35;0.98;;;;;;;3.12;71.66;98382.41;5112815;28;20043;-65
2023/10/17 04:24:34;;;;;;;2.15;1.10;;;;;;;2.91;70.66;98329.31;5113842;28;20047;-64
2023/10/17 04:27:18;;;;;;;3.10;1.23;;;;;;;3.23;70.30;98376.34;5111795;28;20484;-66
2023/10/17 04:30:46;;;;;;;3.95;1.40;;;;;;;3.29;70.34;98365.31;5113024;28;20035;-67
2023/10/17 04:32:38;;;;;;;7.32;1.60;;;;;;;3.33;70.12;98380.94;5104664;28;20039;-64
2023/10/17 04:35:07;;;;;;;2.58;1.23;;;;;;;3.33;70.18;98386.22;5112961;28;20109;-65
2023/10/17 04:37:32;;;;;;;3.28;1.50;;;;;;;3.38;70.36;98389.41;5112836;28;20032;-66
2023/10/17 04:40:50;;;;;;;3.67;1.40;;;;;;;3.46;69.82;98397.59;5112010;28;20028;-65
2023/10/17 04:45:20;;;;;;;1.60;1.02;;;;;;;3.58;69.32;98385.25;5116311;28;20349;-66
2023/10/17 04:47:46;;;;;;;2.67;1.23;;;;;;;3.76;69.31;98406.84;5116939;27;20127;-65
2023/10/17 04:50:12;;;;;;;3.10;1.30;;;;;;;3.73;68.45;98399.97;5116611;27;20035;-65
2023/10/17 04:52:42;;;;;;;2.17;1.50;;;;;;;3.80;68.77;98405.66;5116467;28;20028;-62
2023/10/17 04:55:18;;;;;;;4.00;1.30;;;;;;;3.86;68.67;98399.91;5117533;27;20058;-64
2023/10/17 04:57:55;;;;;;;2.08;1.38;;;;;;;3.68;68.00;98370.38;5116496;28;20032;-66
2023/10/17 05:01:10;;;;;;;4.93;1.50;;;;;;;3.90;68.49;98410.28;5116512;28;20362;-65
2023/10/17 05:03:32;;;;;;;3.92;1.20;;;;;;;3.69;68.02;98371.22;5116172;28;20035;-66
2023/10/17 06:17:48;;;;;;;6.70;1.60;;;;;;;5.50;62.19;98458.81;5113625;28;20041;-67
2023/10/17 06:20:17;;;;;;;4.68;1.40;;;;;;;5.51;62.26;98463.16;5096965;28;20030;-66
2023/10/17 06:23:23;;;;;;;3.08;1.70;;;;;;;5.25;62.36;98432.44;5113995;28;20043;-66
2023/10/17 06:31:21;;;;;;;6.68;1.73;;;;;;;5.56;61.72;98424.66;5135164;27;20057;-65
2023/10/17 06:33:35;;;;;;;3.17;1.60;;;;;;;5.80;61.65;98441.31;5133251;27;20058;-65
2023/10/17 06:36:13;;;;;;;2.67;1.30;;;;;;;5.92;60.78;98447.41;5134304;27;20062;-65
2023/10/17 06:38:47;;;;;;;5.13;1.10;;;;;;;5.85;61.48;98453.25;5133796;27;20100;-65
2023/10/17 06:41:27;;;;;;;3.08;1.23;;;;;;;5.82;61.34;98448.19;5134598;27;20133;-64
2023/10/17 06:44:06;;;;;;;4.63;1.48;;;;;;;5.96;61.49;98459.47;5133950;27;20019;-65
2023/10/17 06:46:48;;;;;;;6.63;1.40;;;;;;;5.91;61.53;98467.84;5133868;27;20078;-65
2023/10/17 06:49:46;;;;;;;7.07;1.48;;;;;;;5.98;61.01;98452.19;5129098;27;20031;-65
2023/10/17 06:54:52;;;;;;;5.57;1.30;;;;;;;5.89;61.24;98462.63;5133217;27;20103;-67
2023/10/17 06:57:23;;;;;;;3.53;1.45;;;;;;;5.93;61.10;98457.06;5075836;28;20028;-65
2023/10/17 06:59:51;;;;;;;3.10;1.08;;;;;;;5.98;61.01;98457.53;5092606;28;20028;-65
2023/10/17 07:02:28;;;;;;;3.55;1.30;;;;;;;6.09;60.83;98459.31;5075632;28;20339;-65
2023/10/17 07:05:00;;;;;;;4.40;1.17;;;;;;;6.13;60.71;98471.34;5075219;28;20438;-65
2023/10/17 07:07:39;;;;;;;3.53;1.20;;;;;;;6.09;60.55;98465.47;5092768;28;20097;-65
2023/10/17 07:10:18;;;;;;;2.67;1.20;;;;;;;6.22;60.40;98467.09;5078582;27;20743;-66
2023/10/17 07:12:50;;;;;;;5.30;1.40;;;;;;;6.44;59.81;98468.78;5112968;28;20046;-65
2023/10/17 07:15:19;;;;;;;2.83;1.35;;;;;;;6.60;59.19;98463.00;5114123;28;20046;-69
2023/10/17 07:18:39;;;;;;;5.70;1.38;;;;;;;6.59;59.32;98461.31;5113825;27;20027;-65
2023/10/17 07:23:26;;;;;;;3.05;1.75;;;;;;;6.51;59.49;98463.75;5113759;28;20091;-65
2023/10/17 07:25:56;;;;;;;2.88;1.30;;;;;;;6.25;59.67;98449.06;5112576;28;20089;-66
2023/10/17 07:28:22;;;;;;;7.55;1.60;;;;;;;6.36;59.82;98481.88;5113147;28;20027;-66
2023/10/17 07:30:57;;;;;;;5.15;1.48;;;;;;;6.27;59.69;98473.72;5113512;28;20028;-64
2023/10/17 07:33:23;;;;;;;;;;;;;;;6.58;60.38;98488.88;5093530;28;20043;-65
2023/10/17 07:35:56;;;;;;;;;;;;;;;6.61;60.16;98483.28;5093646;28;19912;-66
2023/10/17 07:38:27;;;;;;;2.33;1.00;;;;;;;6.27;59.28;98478.16;5092704;28;20007;-66
2023/10/17 07:40:58;;;;;;;4.88;1.48;;;;;;;6.14;60.19;98496.97;5088121;28;20019;-67
2023/10/17 07:43:24;;;;;;;1.83;1.05;;;;;;;6.01;59.70;98505.13;5133776;27;20156;-66
2023/10/17 07:45:55;;;;;;;2.15;1.02;;;;;;;5.92;59.81;98511.16;5132718;27;20119;-66
2023/10/17 07:48:27;;;;;;;6.95;1.10;;;;;;;5.82;60.18;98514.59;5133339;27;20493;-66
2023/10/17 07:50:57;;;;;;;2.47;1.00;;;;;;;5.79;60.09;98508.69;5133705;27;20070;-67
2023/10/17 07:53:23;;;;;;;2.92;1.20;;;;;;;5.74;60.66;98514.34;5133734;27;20035;-65
2023/10/17 07:55:52;;;;;;;3.15;1.10;;;;;;;5.76;60.02;98525.69;5129143;27;20038;-66
2023/10/17 07:58:38;;;;;;;3.88;1.15;;;;;;;5.54;60.78;98487.63;5113188;28;20042;-69
2023/10/17 08:01:07;;;;;;;3.30;1.05;;;;;;;5.70;60.04;98512.94;5113110;28;20028;-65
2023/10/17 08:03:39;;;;;;;3.42;1.13;;;;;;;5.76;60.02;98523.03;5111652;28;20031;-65
2023/10/17 08:06:05;;;;;;;5.13;1.05;;;;;;;5.73;59.47;98517.97;5109853;28;20120;-65
2023/10/17 08:08:42;;;;;;;3.70;1.08;;;;;;;5.75;59.34;98524.00;5111981;28;20409;-62
2023/10/17 08:11:26;;;;;;;2.58;0.98;;;;;;;5.83;59.40;98518.94;5089320;28;20350;-65
2023/10/17 08:13:56;;;;;;;3.05;1.17;;;;;;;5.87;58.89;98540.75;5092563;28;20024;-67
2023/10/17 08:16:26;;;;;;;3.85;0.90;;;;;;;5.67;59.75;98531.78;5092847;28;20032;-66
2023/10/17 08:18:58;;;;;;;2.25;1.23;;;;;;;5.43;59.83;98507.09;5106893;27;20028;-64
2023/10/17 08:23:57;;;;;;;4.60;1.17;;;;;;;5.55;59.92;98512.38;5115990;28;20081;-65
2023/10/17 08:26:28;;;;;;;7.38;1.10;;;;;;;5.78;59.26;98533.56;5115741;28;20067;-65
2023/10/17 08:28:56;;;;;;;1.42;1.00;;;;;;;5.68;59.58;98533.47;5116741;28;20027;-63
2023/10/17 08:31:44;;;;;;;4.97;1.10;;;;;;;5.56;58.96;98554.72;5116745;28;20035;-64
2023/10/17 08:34:12;;;;;;;3.38;1.30;;;;;;;5.50;59.36;98549.91;5134465;27;20775;-65
2023/10/17 08:39:26;;;;;;;3.47;1.23;;;;;;;5.74;60.44;98538.25;5115555;28;20032;-65
2023/10/17 08:41:57;;;;;;;3.35;1.30;;;;;;;6.07;59.11;98546.28;5126880;27;20171;-65
2023/10/17 08:44:46;;;;;;;3.97;1.00;;;;;;;6.30;59.84;98539.91;5121463;27;20070;-65
2023/10/17 08:47:16;;;;;;;2.72;1.25;;;;;;;6.17;59.61;98504.69;5115026;28;20373;-62
2023/10/17 08:49:46;;;;;;;2.05;1.20;;;;;;;6.51;59.16;98532.91;5129942;27;20051;-66
2023/10/17 08:52:23;;;;;;;3.22;1.00;;;;;;;6.41;59.30;98499.13;5120304;27;20473;-64
2023/10/17 08:54:49;;;;;;;3.97;1.20;;;;;;;6.55;58.30;98492.63;5096713;28;20064;-65
2023/10/17 08:57:15;;;;;;;4.10;1.50;;;;;;;6.92;57.37;98517.88;5116185;27;20130;-66
2023/10/17 09:04:52;;;;;;;2.70;1.05;;;;;;;7.16;56.38;98517.56;5135794;27;20102;-62
2023/10/17 09:07:31;;;;;;;2.47;1.10;;;;;;;7.34;56.65;98524.91;5114469;28;20118;-62
2023/10/17 09:10:04;;;;;;;5.25;1.30;;;;;;;7.13;55.87;98485.03;5095262;28;20370;-63
2023/10/17 09:12:42;;;;;;;2.78;0.95;;;;;;;7.27;55.48;98519.28;5095150;28;20024;-63
2023/10/17 09:15:27;;;;;;;3.88;1.35;;;;;;;7.65;55.82;98537.31;5093810;28;20028;-62
2023/10/17 09:18:07;;;;;;;2.45;0.98;;;;;;;7.95;54.41;98519.53;5094605;28;20530;-62
2023/10/17 09:20:42;;;;;;;2.95;1.20;;;;;;;8.01;54.46;98521.66;5094316;27;20032;-62
2023/10/17 09:23:28;;;;;;;4.43;1.30;;;;;;;7.94;54.74;98520.53;5114766;28;20052;-62
2023/10/17 09:25:55;;;;;;;2.05;1.05;;;;;;;7.60;54.76;98527.91;5115121;28;20065;-62
2023/10/17 09:28:24;;;;;;;2.80;1.17;;;;;;;7.36;55.12;98522.97;5115207;28;20066;-61
2023/10/17 09:31:03;;;;;;;2.38;1.00;;;;;;;6.95;55.79;98484.84;5115197;28;20023;-60
2023/10/17 09:33:30;;;;;;;1.73;0.95;;;;;;;6.98;56.46;98520.00;5114382;28;20047;-62
2023/10/17 09:36:05;;;;;;;3.50;0.80;;;;;;;7.05;56.40;98525.63;5093248;28;20445;-61
2023/10/17 09:38:32;;;;;;;3.97;1.07;;;;;;;6.97;56.31;98526.28;5094636;28;20032;-62
2023/10/17 09:40:59;;;;;;;2.40;1.00;;;;;;;7.13;56.46;98519.66;5094878;28;20038;-62
2023/10/17 09:43:25;;;;;;;3.35;1.27;;;;;;;7.31;55.75;98522.50;5096754;28;20039;-63
2023/10/17 09:45:52;;;;;;;1.25;0.82;;;;;;;7.49;55.42;98521.88;5102364;27;20027;-59
2023/10/17 09:48:32;;;;;;;2.65;1.00;;;;;;;7.80;55.33;98524.44;5116293;27;20088;-62
2023/10/17 09:51:03;;;;;;;3.22;1.00;;;;;;;7.98;54.79;98535.28;5114568;28;20115;-61
2023/10/17 09:53:33;;;;;;;1.17;0.70;;;;;;;8.18;54.20;98528.13;5108903;28;20047;-60
2023/10/17 09:56:03;;;;;;;1.90;0.70;;;;;;;8.04;54.42;98545.38;5114420;28;20039;-65
2023/10/17 09:58:34;;;;;;;5.05;1.00;;;;;;;7.92;54.27;98498.50;5115125;27;20446;-64
2023/10/17 10:01:20;;;;;;;2.53;1.00;;;;;;;8.35;54.79;98528.41;5111992;27;20455;-65
2023/10/17 10:03:51;;;;;;;2.53;0.95;;;;;;;8.53;53.96;98531.22;5123865;27;20027;-64
2023/10/17 10:06:31;;;;;;;2.88;1.42;;;;;;;8.85;53.62;98522.00;5094452;28;20027;-66
2023/10/17 10:09:06;;;;;;;4.10;0.90;;;;;;;8.93;52.96;98521.28;5112619;28;20365;-66
2023/10/17 10:11:50;;;;;;;2.88;0.80;;;;;;;8.99;53.28;98515.34;5095169;28;20032;-67
2023/10/17 10:14:26;;;;;;;3.33;1.20;;;;;;;8.83;53.50;98511.50;5076677;28;20040;-67
2023/10/17 10:17:03;;;;;;;6.03;1.30;;;;;;;8.41;52.81;98480.66;5076567;28;20446;-63
2023/10/17 10:19:41;;;;;;;2.72;1.15;;;;;;;8.51;53.21;98504.66;5113284;28;20070;-67
2023/10/17 10:22:12;;;;;;;2.78;1.20;;;;;;;8.30;53.24;98504.81;5113585;27;20085;-67
2023/10/17 10:24:40;;;;;;;2.20;1.00;;;;;;;8.15;53.11;98515.91;5093660;28;20052;-66
2023/10/17 10:27:24;;;;;;;1.90;0.55;;;;;;;8.21;53.31;98505.69;5093391;28;20040;-65
2023/10/17 10:30:43;;;;;;;2.05;0.70;;;;;;;8.25;53.76;98515.06;5111953;28;20028;-67
2023/10/17 10:33:11;;;;;;;3.42;0.90;;;;;;;7.82;53.38;98469.19;5096595;28;20028;-66
2023/10/17 10:35:38;;;;;;;1.98;0.90;;;;;;;7.99;54.00;98510.31;5114558;27;20028;-66
2023/10/17 10:38:03;;;;;;;3.20;0.90;;;;;;;7.96;54.23;98507.94;5107041;27;20516;-65
2023/10/17 10:40:32;;;;;;;1.40;0.90;;;;;;;7.97;54.70;98506.94;5116223;27;20174;-65
2023/10/17 10:43:01;;;;;;;2.30;0.90;;;;;;;7.86;54.01;98481.28;5116931;27;20039;-66
2023/10/17 10:45:55;;;;;;;1.63;0.90;;;;;;;7.90;54.75;98507.47;5133878;27;20487;-66
2023/10/17 10:48:21;;;;;;;3.95;0.70;;;;;;;7.86;55.20;98503.41;5105307;28;20044;-65
2023/10/17 10:50:49;;;;;;;2.53;0.80;;;;;;;7.86;55.50;98516.75;5092563;28;20024;-65
2023/10/17 10:53:32;;;;;;;1.92;0.90;;;;;;;7.74;55.43;98478.72;5088006;28;20024;-65
2023/10/17 10:55:59;;;;;;;1.33;0.65;;;;;;;7.78;54.87;98500.63;5116865;27;20087;-62
2023/10/17 10:58:27;;;;;;;2.75;0.82;;;;;;;7.68;55.39;98500.59;5113625;28;20031;-65
2023/10/17 11:00:56;;;;;;;3.53;0.77;;;;;;;7.64;55.40;98506.31;5112576;28;20030;-63
2023/10/17 11:03:22;;;;;;;1.88;0.80;;;;;;;7.63;55.51;98505.50;5075916;28;20032;-63
2023/10/17 11:05:55;;;;;;;3.67;0.90;;;;;;;7.73;55.10;98510.84;5112790;28;20028;-64
2023/10/17 11:08:22;;;;;;;3.58;1.15;;;;;;;7.79;55.27;98509.44;5113401;28;20053;-64
2023/10/17 11:10:48;;;;;;;1.98;1.00;;;;;;;7.80;54.70;98503.13;5112682;28;20036;-63
2023/10/17 11:13:15;;;;;;;0.80;0.60;;;;;;;7.79;54.29;98502.28;5112426;28;20377;-63
2023/10/17 11:15:43;;;;;;;3.25;1.05;;;;;;;7.69;54.89;98502.28;5113820;28;20031;-64
2023/10/17 11:18:10;;;;;;;2.65;1.05;;;;;;;7.54;55.31;98504.50;5130002;27;20034;-63
2023/10/17 11:20:40;;;;;;;3.65;0.98;;;;;;;7.38;55.15;98472.22;5127662;27;20451;-66
2023/10/17 11:23:10;;;;;;;3.42;0.90;;;;;;;7.61;55.95;98516.28;5109845;28;20552;-63
2023/10/17 11:25:37;;;;;;;6.13;1.63;;;;;;;7.54;57.22;98509.81;5108829;28;20597;-65
2023/10/17 11:28:07;;;;;;;4.68;1.00;;;;;;;7.53;57.41;98512.63;5111842;27;20034;-65
2023/10/17 11:30:42;;;;;;;3.15;0.90;;;;;;;7.42;58.23;98516.22;5077218;28;20043;-66
2023/10/17 11:33:52;;;;;;;3.65;1.00;;;;;;;7.29;59.00;98519.13;5110961;28;20446;-65
2023/10/17 11:36:03;;;;;;;2.33;0.90;;;;;;;7.17;60.10;98519.25;5101780;27;20058;-65
2023/10/17 11:38:35;;;;;;;2.97;0.98;;;;;;;7.07;60.72;98522.84;5090695;28;20119;-67
2023/10/17 11:41:03;;;;;;;4.35;0.90;;;;;;;7.09;60.51;98523.56;5104439;27;20020;-65
2023/10/17 11:43:32;;;;;;;5.00;1.10;;;;;;;6.88;61.17;98519.97;5112779;28;20442;-64
2023/10/17 11:45:59;;;;;;;4.13;2.20;;;;;;;6.82;62.04;98504.53;5112396;28;20031;-66
2023/10/17 11:48:31;;;;;;;4.20;1.45;;;;;;;6.88;62.35;98517.31;5116785;27;20233;-64
2023/10/17 11:51:18;;;;;;;3.42;1.10;;;;;;;7.03;62.67;98512.47;5111412;27;20039;-64
2023/10/17 11:54:08;;;;;;;2.95;1.20;;;;;;;7.13;62.56;98516.97;5110936;28;20055;-65
2023/10/17 11:56:37;;;;;;;3.35;1.30;;;;;;;7.10;61.67;98518.09;5126766;27;20469;-65
2023/10/17 11:59:06;;;;;;;2.67;0.82;;;;;;;7.09;61.90;98511.06;5115342;27;20027;-64
2023/10/17 12:01:33;;;;;;;2.88;0.95;;;;;;;6.94;62.21;98509.78;5110905;28;20028;-62
2023/10/17 12:04:16;;;;;;;3.03;1.10;;;;;;;6.91;62.63;98518.84;5111044;28;20040;-65
2023/10/17 12:06:46;;;;;;;1.73;0.90;;;;;;;6.89;62.66;98518.16;5122334;27;20032;-66
2023/10/17 12:09:17;;;;;;;3.85;1.00;;;;;;;6.78;62.80;98519.06;5112872;28;20273;-66
2023/10/17 12:11:46;;;;;;;3.97;0.90;;;;;;;6.70;63.36;98521.56;5128849;27;20035;-64
2023/10/17 12:14:19;;;;;;;3.45;0.98;;;;;;;6.53;63.39;98505.22;5111904;28;20398;-63
2023/10/17 12:16:54;;;;;;;3.50;1.10;;;;;;;6.61;63.86;98517.84;5111704;28;20038;-63
2023/10/17 12:19:20;;;;;;;2.35;0.98;;;;;;;6.63;64.08;98515.91;5111997;28;20073;-61
2023/10/17 12:21:49;;;;;;;2.50;0.90;;;;;;;6.64;64.33;98509.63;5113638;28;20051;-62
2023/10/17 12:24:19;;;;;;;4.78;1.20;;;;;;;6.72;64.01;98520.44;5113116;28;20039;-64
2023/10/17 12:26:49;;;;;;;3.00;1.10;;;;;;;6.64;63.63;98475.03;5130862;28;20118;-65
2023/10/17 12:29:17;;;;;;;4.20;1.00;;;;;;;6.85;64.16;98519.38;5131854;28;20027;-65
2023/10/17 12:31:43;;;;;;;2.65;1.17;;;;;;;6.81;64.23;98515.31;5130677;28;20070;-67
2023/10/17 12:34:08;;;;;;;3.70;1.08;;;;;;;6.83;64.41;98516.03;5113316;28;20126;-66
2023/10/17 12:36:35;;;;;;;2.75;1.00;;;;;;;6.80;64.65;98522.44;5112647;28;20035;-63
2023/10/17 12:39:02;;;;;;;3.88;1.20;;;;;;;6.78;65.29;98518.25;5112549;28;20056;-66
2023/10/17 12:41:30;;;;;;;3.60;1.25;;;;;;;6.74;65.20;98523.78;5112463;28;20298;-66
2023/10/17 12:43:56;;;;;;;2.38;0.90;;;;;;;6.62;65.12;98514.22;5111620;28;20066;-65
2023/10/17 12:46:21;;;;;;;4.38;1.55;;;;;;;6.59;65.12;98520.63;5113570;28;20483;-65
2023/10/17 12:48:47;;;;;;;2.28;1.00;;;;;;;6.58;65.11;98516.28;5118578;28;20063;-64
2023/10/17 12:51:12;;;;;;;2.70;0.90;;;;;;;6.59;65.14;98517.16;5133433;27;20031;-65
2023/10/17 12:53:41;;;;;;;2.95;0.80;;;;;;;6.58;65.04;98526.09;5127200;27;20400;-66
2023/10/17 12:56:11;;;;;;;2.03;0.77;;;;;;;6.56;65.00;98528.06;5118833;28;20042;-64
2023/10/17 12:58:36;;;;;;;3.20;0.82;;;;;;;6.47;64.67;98529.66;5132979;27;20407;-65
2023/10/17 13:01:05;;;;;;;1.73;0.50;;;;;;;6.42;65.57;98532.72;5133061;27;20023;-65
2023/10/17 13:03:36;;;;;;;1.80;0.88;;;;;;;6.32;65.28;98535.28;5134973;27;20034;-65
2023/10/17 13:06:02;;;;;;;3.22;0.80;;;;;;;6.25;65.93;98534.13;5135639;27;20104;-66
2023/10/17 13:08:28;;;;;;;2.95;0.65;;;;;;;6.16;66.01;98535.72;5130864;27;20699;-64
2023/10/17 13:10:55;;;;;;;3.33;0.85;;;;;;;6.17;65.95;98542.75;5115625;28;20034;-64
2023/10/17 13:13:24;;;;;;;1.27;0.60;;;;;;;6.13;66.34;98546.63;5115861;28;20047;-66
2023/10/17 13:15:50;;;;;;;1.27;0.90;;;;;;;6.01;66.89;98531.69;5132426;27;20120;-66
2023/10/17 13:18:16;;;;;;;1.75;0.77;;;;;;;6.02;66.55;98550.16;5125734;27;20039;-66
2023/10/17 13:20:48;;;;;;;3.08;0.55;;;;;;;5.98;66.70;98542.53;5115874;27;20031;-67
2023/10/17 13:23:17;;;;;;;2.72;1.60;;;;;;;5.99;66.74;98546.88;5115787;28;20490;-64
2023/10/17 13:25:44;;;;;;;2.53;0.40;;;;;;;5.95;67.01;98545.44;5115352;28;20040;-65
2023/10/17 13:28:10;;;;;;;1.35;0.50;;;;;;;5.89;66.51;98560.94;5114769;27;20051;-66
2023/10/17 13:30:36;;;;;;;0.75;0.50;;;;;;;5.81;66.86;98560.72;5115583;27;20358;-69
2023/10/17 13:33:02;;;;;;;2.10;0.50;;;;;;;5.67;67.21;98535.28;5114878;28;20038;-68
2023/10/17 13:35:30;;;;;;;0.98;0.50;;;;;;;5.70;67.54;98552.75;5114698;28;20031;-65
2023/10/17 13:37:58;;;;;;;0.95;0.40;;;;;;;5.63;67.29;98543.63;5116303;28;20038;-69
2023/10/17 13:40:26;;;;;;;0.70;0.40;;;;;;;5.59;68.38;98551.84;5115367;28;20205;-68
2023/10/17 13:42:55;;;;;;;1.15;0.52;;;;;;;5.55;68.23;98558.34;5115454;28;20028;-67
2023/10/17 13:45:21;;;;;;;4.32;0.40;;;;;;;5.55;68.09;98563.66;5115264;28;20038;-69
2023/10/17 13:47:52;;;;;;;1.20;0.30;;;;;;;5.53;68.21;98559.44;5114632;28;20359;-67
2023/10/17 13:50:21;;;;;;;2.35;0.50;;;;;;;5.50;68.58;98568.47;5114429;28;20032;-68